Time;durP1;ratioP1;P1;durP2;ratioP2;P2;SDS_P1;SDS_P2;PMS_P1;PMS_P2;Temp;Humidity;BMP_temperature;BMP_pressure;BME280_temperature;BME280_humidity;BME280_pressure;Samples;Min_cycle;Max_cycle;Signal;HPM_P1;HPM_P2
2023/02/04 00:00:54;;;;;;;0.63;0.63;;;;;;;-2.90;89.59;102046.84;5087384;28;20036;-70
2023/02/04 00:03:19;;;;;;;0.60;0.60;;;;;;;-2.88;89.40;102047.84;5087376;28;20050;-69
2023/02/04 00:05:45;;;;;;;2.17;2.10;;;;;;;-2.88;89.29;102056.38;5086729;28;20061;-67
2023/02/04 00:08:10;;;;;;;0.70;0.70;;;;;;;-2.87;89.02;102059.78;5070088;28;20025;-69
2023/02/04 00:10:36;;;;;;;0.60;0.60;;;;;;;-2.82;89.28;102066.09;5088013;28;20024;-69
2023/02/04 00:13:02;;;;;;;0.65;0.65;;;;;;;-2.83;89.09;102069.41;5087309;28;20024;-69
2023/02/04 00:15:28;;;;;;;0.60;0.60;;;;;;;-2.81;89.16;102084.78;5087179;28;20523;-68
2023/02/04 00:17:54;;;;;;;0.70;0.70;;;;;;;-2.78;88.80;102102.81;5087130;28;20456;-68
2023/02/04 00:20:19;;;;;;;0.60;0.60;;;;;;;-2.75;87.96;102093.72;5086793;28;20027;-70
2023/02/04 00:22:45;;;;;;;0.70;0.70;;;;;;;-2.79;88.41;102096.81;5086970;28;20491;-70
2023/02/04 00:25:11;;;;;;;0.63;0.63;;;;;;;-2.81;88.31;102094.97;5087044;28;20103;-69
2023/02/04 00:27:36;;;;;;;0.65;0.65;;;;;;;-2.76;88.62;102103.78;5087826;28;20020;-69
2023/02/04 00:30:03;;;;;;;0.50;0.50;;;;;;;-2.71;88.54;102106.66;5087938;28;20076;-69
2023/02/04 00:32:29;;;;;;;0.60;0.60;;;;;;;-2.72;88.28;102107.44;5087706;28;20067;-68
2023/02/04 00:34:54;;;;;;;0.70;0.70;;;;;;;-2.72;88.19;102117.63;5086986;28;20040;-69
2023/02/04 00:37:20;;;;;;;0.60;0.60;;;;;;;-2.73;88.08;102114.19;5087320;28;20024;-69
2023/02/04 00:39:45;;;;;;;0.60;0.60;;;;;;;-2.75;88.11;102114.06;5087489;28;20020;-69
2023/02/04 00:42:10;;;;;;;0.80;0.80;;;;;;;-2.73;88.00;102109.09;5087800;28;20021;-69
2023/02/04 00:44:36;;;;;;;0.70;0.70;;;;;;;-2.76;87.90;102114.84;5087227;28;20017;-69
2023/02/04 00:47:02;;;;;;;0.85;0.85;;;;;;;-2.87;88.15;102108.97;5086535;28;20047;-69
2023/02/04 00:49:27;;;;;;;0.60;0.60;;;;;;;-2.85;88.28;102129.41;5086531;28;20484;-69
2023/02/04 00:51:53;;;;;;;0.70;0.70;;;;;;;-2.89;88.28;102132.53;5086222;28;20111;-69
2023/02/04 00:54:18;;;;;;;0.63;0.63;;;;;;;-2.93;88.15;102135.59;5085853;28;20377;-71
2023/02/04 00:56:44;;;;;;;0.60;0.60;;;;;;;-3.01;88.28;102146.06;5086188;28;20039;-68
2023/02/04 00:59:09;;;;;;;0.55;0.55;;;;;;;-2.99;88.30;102149.59;5086267;28;20020;-68
2023/02/04 01:01:35;;;;;;;0.70;0.70;;;;;;;-3.07;88.20;102144.72;5086107;28;20086;-68
2023/02/04 01:04:01;;;;;;;0.60;0.60;;;;;;;-3.06;88.29;102155.00;5085995;28;20108;-69
2023/02/04 01:06:26;;;;;;;0.60;0.60;;;;;;;-3.09;88.12;102162.38;5085230;28;20024;-68
2023/02/04 01:08:52;;;;;;;0.63;0.63;;;;;;;-3.13;88.05;102168.03;5086037;28;20020;-69
2023/02/04 01:11:18;;;;;;;0.60;0.60;;;;;;;-3.17;88.18;102168.53;5086035;28;20472;-68
2023/02/04 01:13:43;;;;;;;0.60;0.60;;;;;;;-3.21;87.90;102180.09;5085421;28;20032;-68
2023/02/04 01:16:09;;;;;;;0.80;0.80;;;;;;;-3.26;87.95;102179.75;5085983;28;20031;-69
2023/02/04 01:18:34;;;;;;;0.70;0.70;;;;;;;-3.28;88.09;102182.97;5085842;28;20035;-69
2023/02/04 01:21:00;;;;;;;0.50;0.50;;;;;;;-3.31;87.97;102187.81;5085551;28;20044;-69
2023/02/04 01:23:25;;;;;;;0.60;0.60;;;;;;;-3.36;87.87;102188.34;5085644;28;20028;-69
2023/02/04 01:25:50;;;;;;;0.60;0.60;;;;;;;-3.44;88.04;102186.84;5085572;28;20031;-69
2023/02/04 01:28:16;;;;;;;0.68;0.68;;;;;;;-3.45;88.02;102196.91;5085703;28;20028;-69
2023/02/04 01:30:41;;;;;;;0.57;0.57;;;;;;;-3.49;87.95;102201.75;5085541;28;20020;-70
2023/02/04 01:33:07;;;;;;;0.60;0.60;;;;;;;-3.52;87.93;102201.50;5067228;28;20021;-69
2023/02/04 01:35:32;;;;;;;0.70;0.70;;;;;;;-3.54;87.85;102207.19;5085340;28;20024;-68
2023/02/04 01:37:58;;;;;;;0.73;0.73;;;;;;;-3.58;87.95;102213.72;5085425;28;20107;-69
2023/02/04 01:40:23;;;;;;;0.65;0.65;;;;;;;-3.63;87.87;102217.53;5085372;28;20111;-69
2023/02/04 01:42:49;;;;;;;0.60;0.60;;;;;;;-3.70;87.70;102220.34;5085455;28;20055;-69
2023/02/04 01:45:15;;;;;;;0.70;0.70;;;;;;;-3.67;87.70;102234.16;5084984;28;20067;-69
2023/02/04 01:47:41;;;;;;;0.65;0.65;;;;;;;-3.70;87.75;102239.00;5085514;28;20033;-69
2023/02/04 01:50:09;;;;;;;0.60;0.60;;;;;;;-3.72;87.70;102247.28;5085056;28;20028;-69
2023/02/04 01:52:38;;;;;;;0.65;0.65;;;;;;;-3.74;87.60;102244.63;5085300;28;20063;-69
2023/02/04 01:55:13;;;;;;;0.70;0.70;;;;;;;-3.81;87.66;102260.09;5085313;28;20468;-70
2023/02/04 01:57:39;;;;;;;0.60;0.60;;;;;;;-3.83;87.43;102259.09;5085261;28;20035;-69
2023/02/04 02:00:13;;;;;;;0.70;0.70;;;;;;;-3.89;87.62;102262.91;5085557;28;20020;-68
2023/02/04 02:02:43;;;;;;;0.70;0.70;;;;;;;-3.95;87.76;102271.69;5085276;28;20075;-69
2023/02/04 02:05:11;;;;;;;0.60;0.60;;;;;;;-4.04;87.50;102264.22;5084932;28;20020;-69
2023/02/04 02:07:37;;;;;;;0.60;0.60;;;;;;;-3.99;87.62;102279.03;5085188;28;20021;-68
2023/02/04 02:10:05;;;;;;;0.70;0.70;;;;;;;-4.07;87.63;102274.97;5085158;28;20024;-69
2023/02/04 02:12:31;;;;;;;0.70;0.70;;;;;;;-4.07;87.60;102285.13;5086598;28;20024;-69
2023/02/04 02:14:58;;;;;;;0.70;0.70;;;;;;;-4.08;87.55;102288.44;5091778;28;20046;-69
2023/02/04 02:17:23;;;;;;;0.70;0.70;;;;;;;-4.15;87.53;102286.16;5073613;28;20024;-70
2023/02/04 02:19:49;;;;;;;0.57;0.57;;;;;;;-4.15;87.60;102296.28;5091781;28;20035;-69
2023/02/04 02:22:26;;;;;;;0.70;0.70;;;;;;;-4.20;87.85;102300.13;5091447;28;20107;-69
2023/02/04 02:24:51;;;;;;;0.70;0.70;;;;;;;-4.23;87.65;102311.78;5091479;28;20029;-68
2023/02/04 02:27:17;;;;;;;0.70;0.70;;;;;;;-4.23;87.55;102314.31;5091521;28;20024;-69
2023/02/04 02:29:42;;;;;;;0.63;0.63;;;;;;;-4.26;87.48;102323.31;5091590;28;20028;-69
2023/02/04 02:32:10;;;;;;;0.70;0.70;;;;;;;-4.32;87.57;102323.69;5091668;28;20029;-70
2023/02/04 02:34:38;;;;;;;0.60;0.60;;;;;;;-4.30;87.52;102341.59;5091348;28;20448;-69
2023/02/04 02:37:05;;;;;;;0.70;0.70;;;;;;;-4.40;87.55;102334.84;5091559;28;20033;-69
2023/02/04 02:39:32;;;;;;;0.70;0.70;;;;;;;-4.37;87.58;102350.31;5091514;28;20080;-70
2023/02/04 02:41:58;;;;;;;0.68;0.68;;;;;;;-4.49;87.49;102340.91;5091772;28;20354;-70
2023/02/04 02:44:25;;;;;;;0.70;0.70;;;;;;;-4.45;87.40;102351.31;5091175;28;20469;-69
2023/02/04 02:46:52;;;;;;;0.70;0.70;;;;;;;-4.41;87.55;102363.50;5091278;28;20425;-69
2023/02/04 02:49:19;;;;;;;0.68;0.68;;;;;;;-4.44;87.50;102365.78;5091306;28;20115;-69
2023/02/04 02:51:44;;;;;;;0.60;0.60;;;;;;;-4.45;87.44;102371.59;5091339;28;20016;-69
2023/02/04 02:54:21;;;;;;;0.70;0.70;;;;;;;-4.48;87.52;102388.34;5091365;28;20024;-68
2023/02/04 02:56:47;;;;;;;0.70;0.70;;;;;;;-4.48;87.65;102385.81;5091457;28;20025;-69
2023/02/04 02:59:14;;;;;;;0.65;0.65;;;;;;;-4.49;87.62;102395.81;5091186;28;20105;-70
2023/02/04 03:01:40;;;;;;;0.70;0.70;;;;;;;-4.52;87.59;102401.50;5091103;28;20032;-69
2023/02/04 03:04:07;;;;;;;0.70;0.70;;;;;;;-4.53;87.50;102407.34;5073034;28;20024;-69
2023/02/04 03:06:33;;;;;;;0.55;0.55;;;;;;;-4.55;87.41;102413.91;5091277;28;20082;-68
2023/02/04 03:08:58;;;;;;;0.70;0.70;;;;;;;-4.56;87.56;102423.91;5091554;28;20020;-69
2023/02/04 03:11:25;;;;;;;0.60;0.60;;;;;;;-4.55;87.59;102426.59;5091162;28;20460;-70
2023/02/04 03:13:51;;;;;;;0.70;0.70;;;;;;;-4.63;87.57;102415.78;5090908;28;20074;-69
2023/02/04 03:16:17;;;;;;;0.60;0.60;;;;;;;-4.64;87.45;102416.56;5091332;28;20025;-69
2023/02/04 03:18:43;;;;;;;0.70;0.70;;;;;;;-4.62;87.45;102424.28;5072874;28;20381;-69
2023/02/04 03:21:08;;;;;;;0.70;0.70;;;;;;;-4.58;87.43;102436.47;5090907;28;20090;-69
2023/02/04 03:23:35;;;;;;;0.70;0.70;;;;;;;-4.68;87.45;102432.25;5090557;28;20043;-69
2023/02/04 03:26:01;;;;;;;0.70;0.70;;;;;;;-4.66;87.56;102448.47;5086972;28;20103;-69
2023/02/04 03:28:27;;;;;;;0.70;0.70;;;;;;;-4.65;87.41;102445.19;5087812;28;20529;-70
2023/02/04 03:30:54;;;;;;;0.70;0.70;;;;;;;-4.64;87.23;102456.22;5087864;28;20024;-70
2023/02/04 03:33:25;;;;;;;0.60;0.60;;;;;;;-4.68;87.30;102454.19;5087648;28;20069;-70
2023/02/04 03:35:50;;;;;;;0.70;0.70;;;;;;;-4.65;87.39;102472.19;5087655;28;20035;-70
2023/02/04 03:38:17;;;;;;;0.70;0.70;;;;;;;-4.74;87.20;102455.41;5069483;28;20060;-70
2023/02/04 03:40:42;;;;;;;0.70;0.70;;;;;;;-4.68;87.08;102471.94;5087617;28;20115;-70
2023/02/04 03:43:07;;;;;;;0.60;0.60;;;;;;;-4.69;87.13;102477.72;5087722;28;20024;-70
2023/02/04 03:45:33;;;;;;;0.60;0.60;;;;;;;-4.75;87.14;102476.47;5087180;28;20048;-70
2023/02/04 03:47:58;;;;;;;0.60;0.60;;;;;;;-4.74;87.08;102484.94;5087653;28;20044;-70
2023/02/04 03:50:24;;;;;;;0.60;0.60;;;;;;;-4.76;87.10;102489.88;5087336;28;20095;-70
2023/02/04 03:52:51;;;;;;;0.70;0.70;;;;;;;-4.77;86.98;102500.78;5087399;28;20063;-70
2023/02/04 03:55:16;;;;;;;4.00;3.80;;;;;;;-4.79;87.10;102504.81;5087316;28;20102;-70
2023/02/04 03:57:42;;;;;;;0.70;0.70;;;;;;;-4.84;87.04;102508.59;5087544;28;20474;-70
2023/02/04 04:00:09;;;;;;;0.70;0.70;;;;;;;-4.83;87.00;102514.53;5087193;28;20020;-69
2023/02/04 04:02:34;;;;;;;0.65;0.65;;;;;;;-4.83;86.83;102517.06;5087274;28;20039;-70
2023/02/04 04:04:59;;;;;;;0.65;0.65;;;;;;;-4.83;86.81;102520.50;5086847;28;20025;-70
2023/02/04 04:07:25;;;;;;;0.70;0.70;;;;;;;-4.85;86.96;102527.06;5087184;28;20050;-70
2023/02/04 04:09:50;;;;;;;0.63;0.63;;;;;;;-4.86;86.80;102535.44;5068997;28;20042;-70
2023/02/04 04:12:16;;;;;;;0.70;0.70;;;;;;;-4.89;86.71;102536.03;5086901;28;20142;-70
2023/02/04 04:14:41;;;;;;;0.68;0.68;;;;;;;-4.91;86.69;102541.72;5086861;28;20115;-71
2023/02/04 04:17:07;;;;;;;0.77;0.77;;;;;;;-4.95;86.77;102554.88;5087190;28;20052;-70
2023/02/04 04:19:32;;;;;;;0.70;0.70;;;;;;;-4.96;86.72;102564.13;5086835;28;20024;-69
2023/02/04 04:21:57;;;;;;;0.77;0.77;;;;;;;-4.96;86.77;102569.19;5086895;28;20051;-70
2023/02/04 04:24:23;;;;;;;0.70;0.70;;;;;;;-5.02;86.76;102567.00;5086588;28;20029;-69
2023/02/04 04:26:48;;;;;;;0.70;0.70;;;;;;;-4.98;86.75;102585.88;5086709;28;20033;-70
2023/02/04 04:29:14;;;;;;;0.70;0.70;;;;;;;-4.99;86.91;102582.47;5086724;28;20046;-70
2023/02/04 04:31:39;;;;;;;0.70;0.70;;;;;;;-5.02;86.83;102587.28;5086609;28;20047;-70
2023/02/04 04:34:04;;;;;;;0.70;0.70;;;;;;;-5.07;86.63;102585.06;5086456;28;20047;-70
2023/02/04 04:36:30;;;;;;;0.70;0.70;;;;;;;-5.09;86.66;102587.44;5086087;28;20063;-70
2023/02/04 04:38:55;;;;;;;0.63;0.63;;;;;;;-5.15;86.67;102591.97;5086403;28;20103;-70
2023/02/04 04:41:21;;;;;;;0.70;0.70;;;;;;;-5.19;86.61;102600.03;5086379;28;20350;-70
2023/02/04 04:43:46;;;;;;;0.70;0.70;;;;;;;-5.25;86.50;102590.22;5086373;28;20078;-70
2023/02/04 04:46:11;;;;;;;0.70;0.70;;;;;;;-5.24;86.58;102610.63;5086047;28;20059;-70
2023/02/04 04:48:37;;;;;;;0.68;0.68;;;;;;;-5.24;86.54;102609.75;5068617;28;20114;-70
2023/02/04 04:51:03;;;;;;;0.60;0.60;;;;;;;-5.28;86.43;102620.34;5085782;28;20074;-70
2023/02/04 04:53:28;;;;;;;0.80;0.80;;;;;;;-5.35;86.30;102627.38;5086362;28;20040;-70
2023/02/04 04:55:54;;;;;;;0.80;0.80;;;;;;;-5.38;86.31;102623.66;5086118;28;20077;-70
2023/02/04 04:58:19;;;;;;;0.70;0.70;;;;;;;-5.43;86.17;102630.81;5086198;28;20024;-71
2023/02/04 05:00:45;;;;;;;0.70;0.70;;;;;;;-5.53;86.07;102628.19;5068079;28;20460;-70
2023/02/04 05:03:10;;;;;;;0.60;0.60;;;;;;;-5.52;85.89;102623.28;5068161;28;20037;-70
2023/02/04 05:05:39;;;;;;;0.63;0.63;;;;;;;-5.52;86.16;102635.94;5085682;28;20028;-70
2023/02/04 05:08:09;;;;;;;0.60;0.60;;;;;;;-5.65;85.91;102627.91;5086149;28;20032;-70
2023/02/04 05:10:35;;;;;;;0.70;0.70;;;;;;;-5.62;85.96;102638.31;5086451;28;20024;-70
2023/02/04 05:13:00;;;;;;;0.70;0.70;;;;;;;-5.70;85.81;102635.06;5086458;28;20035;-69
2023/02/04 05:15:26;;;;;;;0.60;0.60;;;;;;;-5.73;85.67;102644.91;5086075;28;20040;-68
2023/02/04 05:17:52;;;;;;;0.63;0.63;;;;;;;-5.78;85.68;102641.94;5086325;28;20367;-69
2023/02/04 05:20:17;;;;;;;0.80;0.80;;;;;;;-5.77;85.76;102638.69;5086189;28;20029;-69
2023/02/04 05:22:43;;;;;;;0.70;0.70;;;;;;;-5.76;85.71;102645.53;5086368;28;20092;-70
2023/02/04 05:25:08;;;;;;;0.70;0.70;;;;;;;-5.94;85.99;102629.47;5086203;28;20025;-69
2023/02/04 05:27:34;;;;;;;3.38;3.22;;;;;;;-5.86;85.77;102641.22;5086537;28;20464;-70
2023/02/04 05:29:59;;;;;;;0.70;0.70;;;;;;;-5.79;85.78;102657.88;5085810;28;20033;-70
2023/02/04 05:32:25;;;;;;;0.70;0.70;;;;;;;-5.77;85.67;102663.09;5067611;28;20468;-70
2023/02/04 05:34:50;;;;;;;0.70;0.70;;;;;;;-5.79;85.87;102651.94;5085558;28;20074;-69
2023/02/04 05:37:17;;;;;;;0.70;0.70;;;;;;;-5.83;85.80;102653.25;5067396;28;20020;-69
2023/02/04 05:39:43;;;;;;;0.60;0.60;;;;;;;-5.80;85.86;102652.69;5085553;28;20025;-70
2023/02/04 05:42:08;;;;;;;0.60;0.60;;;;;;;-5.81;86.18;102659.38;5085389;28;20112;-70
2023/02/04 05:44:34;;;;;;;0.60;0.60;;;;;;;-5.78;86.18;102659.66;5085270;28;20035;-70
2023/02/04 05:46:59;;;;;;;0.60;0.60;;;;;;;-5.79;86.20;102665.47;5066674;28;20057;-72
2023/02/04 05:49:24;;;;;;;0.70;0.70;;;;;;;-5.80;86.05;102653.59;5085147;28;20024;-70
2023/02/04 05:51:50;;;;;;;0.80;0.80;;;;;;;-5.77;86.08;102666.53;5085243;28;20089;-70
2023/02/04 05:54:18;;;;;;;0.70;0.70;;;;;;;-5.73;86.03;102678.72;5085485;28;20432;-70
2023/02/04 05:56:44;;;;;;;0.70;0.70;;;;;;;-5.78;86.18;102677.38;5085366;28;20050;-70
2023/02/04 05:59:10;;;;;;;0.73;0.73;;;;;;;-5.76;85.90;102691.06;5085259;28;20396;-69
2023/02/04 06:01:35;;;;;;;0.70;0.70;;;;;;;-5.75;86.01;102694.50;5085174;28;20020;-70
2023/02/04 06:04:01;;;;;;;0.70;0.70;;;;;;;-5.76;86.03;102701.19;5085452;28;20017;-70
2023/02/04 06:06:26;;;;;;;0.70;0.70;;;;;;;-5.79;86.01;102698.38;5085855;28;20016;-70
2023/02/04 06:08:51;;;;;;;0.60;0.60;;;;;;;-5.78;86.07;102702.69;5085189;28;20033;-70
2023/02/04 06:11:17;;;;;;;0.70;0.70;;;;;;;-5.80;86.02;102704.19;5085175;28;20111;-70
2023/02/04 06:13:42;;;;;;;0.70;0.70;;;;;;;-5.77;85.90;102704.50;5085072;28;20108;-70
2023/02/04 06:16:08;;;;;;;0.60;0.60;;;;;;;-5.73;85.93;102708.19;5085205;28;20025;-70
2023/02/04 06:18:33;;;;;;;0.70;0.70;;;;;;;-5.75;86.04;102720.69;5067087;28;20028;-70
2023/02/04 06:20:58;;;;;;;0.80;0.80;;;;;;;-5.83;85.99;102708.06;5084868;28;20457;-69
2023/02/04 06:23:24;;;;;;;0.70;0.70;;;;;;;-5.80;85.82;102734.56;5066997;28;20017;-69
2023/02/04 06:25:49;;;;;;;0.70;0.70;;;;;;;-5.83;85.86;102729.19;5084994;28;20495;-70
2023/02/04 06:28:15;;;;;;;0.70;0.70;;;;;;;-5.83;85.85;102733.38;5084950;28;20048;-69
2023/02/04 06:30:40;;;;;;;0.80;0.80;;;;;;;-5.90;85.89;102722.66;5066814;28;20024;-70
2023/02/04 06:33:05;;;;;;;0.60;0.60;;;;;;;-5.81;85.97;102739.47;5085057;28;20025;-70
2023/02/04 06:35:31;;;;;;;0.70;0.70;;;;;;;-5.87;85.79;102738.13;5066441;28;20016;-69
2023/02/04 06:37:56;;;;;;;0.70;0.70;;;;;;;-5.82;85.81;102741.09;5085244;28;20040;-70
2023/02/04 06:40:22;;;;;;;0.80;0.80;;;;;;;-5.80;85.94;102749.75;5066717;28;20032;-69
2023/02/04 06:42:47;;;;;;;0.60;0.60;;;;;;;-5.82;85.95;102758.81;5084916;28;20036;-70
2023/02/04 06:45:13;;;;;;;0.70;0.70;;;;;;;-5.90;85.96;102752.09;5084272;28;20026;-72
2023/02/04 06:47:38;;;;;;;0.70;0.70;;;;;;;-5.84;85.88;102762.81;5084751;28;20034;-70
2023/02/04 06:50:04;;;;;;;0.80;0.80;;;;;;;-5.94;85.65;102750.03;5084655;28;20092;-71
2023/02/04 06:52:29;;;;;;;0.63;0.63;;;;;;;-5.85;85.87;102769.50;5084606;28;20044;-70
2023/02/04 06:54:54;;;;;;;0.70;0.70;;;;;;;-5.79;85.89;102775.91;5066543;28;20020;-70
2023/02/04 06:57:20;;;;;;;0.70;0.70;;;;;;;-5.77;86.03;102777.88;5084880;28;20060;-71
2023/02/04 06:59:46;;;;;;;0.60;0.60;;;;;;;-5.75;85.89;102778.88;5087029;28;20036;-71
2023/02/04 07:02:12;;;;;;;0.80;0.80;;;;;;;-5.74;85.92;102780.69;5070373;28;20052;-71
2023/02/04 07:04:37;;;;;;;0.70;0.70;;;;;;;-5.75;85.73;102778.88;5070467;28;20028;-71
2023/02/04 07:07:02;;;;;;;0.70;0.70;;;;;;;-5.80;85.83;102779.19;5088186;28;20035;-71
2023/02/04 07:09:28;;;;;;;0.70;0.70;;;;;;;-5.75;85.81;102791.53;5088765;28;20020;-71
2023/02/04 07:11:53;;;;;;;0.70;0.70;;;;;;;-5.75;85.84;102793.19;5070105;28;20542;-70
2023/02/04 07:14:20;;;;;;;0.60;0.60;;;;;;;-5.77;85.67;102795.59;5088149;28;20076;-71
2023/02/04 07:16:45;;;;;;;0.70;0.70;;;;;;;-5.78;85.81;102787.84;5088193;28;20028;-70
2023/02/04 07:19:10;;;;;;;0.60;0.60;;;;;;;-5.82;85.71;102786.66;5088237;28;20032;-70
2023/02/04 07:21:36;;;;;;;0.70;0.70;;;;;;;-5.81;85.65;102793.47;5087870;28;20127;-70
2023/02/04 07:24:02;;;;;;;0.80;0.80;;;;;;;-5.81;85.54;102796.00;5088220;28;20021;-70
2023/02/04 07:26:27;;;;;;;0.70;0.70;;;;;;;-5.75;85.59;102800.78;5087988;28;20021;-71
2023/02/04 07:28:53;;;;;;;0.70;0.70;;;;;;;-5.76;85.81;102807.47;5088333;28;20043;-71
2023/02/04 07:31:18;;;;;;;0.70;0.70;;;;;;;-5.76;85.68;102799.88;5087823;28;20358;-70
2023/02/04 07:33:44;;;;;;;0.63;0.63;;;;;;;-5.73;86.02;102812.84;5087851;28;20476;-70
2023/02/04 07:36:09;;;;;;;0.70;0.70;;;;;;;-5.64;85.93;102822.94;5087597;28;20025;-70
2023/02/04 07:38:35;;;;;;;0.70;0.70;;;;;;;-5.55;86.03;102828.03;5087762;28;20024;-75
2023/02/04 07:41:00;;;;;;;0.70;0.70;;;;;;;-5.55;86.02;102820.44;5069755;28;20073;-74
2023/02/04 07:43:25;;;;;;;0.70;0.70;;;;;;;-5.44;86.10;102828.16;5087791;28;20032;-72
2023/02/04 07:45:51;;;;;;;0.70;0.70;;;;;;;-5.40;86.08;102827.72;5087309;28;20033;-79
2023/02/04 07:48:16;;;;;;;0.70;0.70;;;;;;;-5.28;86.42;102836.50;5087778;28;20511;-75
2023/02/04 07:50:42;;;;;;;0.60;0.60;;;;;;;-5.09;86.60;102833.19;5087644;28;20472;-70
2023/02/04 07:53:07;;;;;;;0.70;0.70;;;;;;;-4.82;87.08;102835.66;5069961;28;20373;-69
2023/02/04 07:55:32;;;;;;;0.70;0.70;;;;;;;-4.49;87.99;102830.28;5087631;28;20483;-69
2023/02/04 07:57:58;;;;;;;0.52;0.52;;;;;;;-3.78;88.18;102832.41;5069512;28;20024;-69
2023/02/04 08:00:24;;;;;;;0.63;0.63;;;;;;;-3.19;87.98;102840.84;5087690;28;20017;-69
2023/02/04 08:02:49;;;;;;;0.60;0.60;;;;;;;-2.55;88.10;102823.38;5087693;28;20385;-69
2023/02/04 08:05:15;;;;;;;0.50;0.50;;;;;;;-1.85;87.19;102835.91;5069261;28;20024;-70
2023/02/04 08:07:40;;;;;;;0.70;0.70;;;;;;;-1.44;86.05;102837.47;5069499;28;20020;-70
2023/02/04 08:10:08;;;;;;;0.60;0.60;;;;;;;-1.18;85.13;102836.13;5086965;28;20016;-70
2023/02/04 08:12:33;;;;;;;0.60;0.60;;;;;;;-1.08;84.29;102847.94;5087151;28;20050;-68
2023/02/04 08:15:00;;;;;;;0.60;0.60;;;;;;;-1.08;83.96;102846.28;5087250;28;20020;-67
2023/02/04 08:17:26;;;;;;;0.50;0.50;;;;;;;-0.93;83.83;102850.81;5087041;28;20031;-69
2023/02/04 08:19:51;;;;;;;1.05;1.05;;;;;;;-1.01;83.41;102832.34;5086842;28;20021;-68
2023/02/04 08:22:16;;;;;;;0.60;0.60;;;;;;;-0.83;83.55;102849.88;5086606;28;20369;-66
2023/02/04 08:24:42;;;;;;;0.60;0.60;;;;;;;-0.48;83.86;102855.94;5086641;28;20036;-66
2023/02/04 08:27:07;;;;;;;0.60;0.60;;;;;;;0.05;84.10;102859.88;5085985;28;20046;-66
2023/02/04 08:29:32;;;;;;;0.70;0.70;;;;;;;0.54;83.53;102857.50;5085900;28;20020;-66
2023/02/04 08:31:58;;;;;;;0.55;0.55;;;;;;;0.95;83.04;102860.34;5086795;28;20024;-65
2023/02/04 08:34:23;;;;;;;0.50;0.50;;;;;;;1.21;82.53;102858.75;5087709;28;20055;-67
2023/02/04 08:36:49;;;;;;;0.50;0.50;;;;;;;1.15;81.98;102861.75;5068985;28;20032;-69
2023/02/04 08:39:14;;;;;;;0.60;0.60;;;;;;;1.29;81.53;102875.53;5087328;28;20028;-68
2023/02/04 08:41:40;;;;;;;0.55;0.55;;;;;;;1.46;81.29;102876.72;5087116;28;20029;-69
2023/02/04 08:44:05;;;;;;;0.50;0.50;;;;;;;1.66;81.14;102879.72;5086121;28;20032;-69
2023/02/04 08:46:31;;;;;;;0.50;0.50;;;;;;;1.71;79.81;102875.81;5085464;28;20091;-68
2023/02/04 08:48:57;;;;;;;0.60;0.60;;;;;;;2.26;79.82;102886.22;5085600;28;20021;-69
2023/02/04 08:51:22;;;;;;;0.50;0.50;;;;;;;2.67;78.79;102893.19;5067834;28;20031;-70
2023/02/04 08:53:47;;;;;;;0.50;0.50;;;;;;;3.19;78.53;102898.97;5085159;28;20084;-73
2023/02/04 08:56:19;;;;;;;0.50;0.50;;;;;;;3.49;77.98;102886.25;5086298;28;20028;-76
2023/02/04 08:58:45;;;;;;;0.50;0.50;;;;;;;3.54;76.49;102900.25;5068288;28;20040;-71
2023/02/04 09:01:10;;;;;;;0.70;0.70;;;;;;;3.56;75.52;102906.34;5086398;28;20032;-70
2023/02/04 09:03:37;;;;;;;0.60;0.60;;;;;;;3.06;73.46;102915.28;5086274;28;20415;-70
2023/02/04 09:06:04;;;;;;;0.50;0.50;;;;;;;2.83;74.91;102917.25;5086481;28;20024;-71
2023/02/04 09:08:29;;;;;;;0.50;0.50;;;;;;;2.47;75.86;102908.16;5086160;28;20055;-71
2023/02/04 09:10:54;;;;;;;0.60;0.60;;;;;;;2.27;76.67;102905.97;5085989;28;20025;-71
2023/02/04 09:13:20;;;;;;;0.60;0.60;;;;;;;2.33;76.70;102916.63;5085909;28;20413;-71
2023/02/04 09:15:45;;;;;;;0.50;0.50;;;;;;;2.08;75.72;102894.47;5085727;28;20119;-71
2023/02/04 09:18:15;;;;;;;0.50;0.50;;;;;;;1.89;75.27;102888.09;5085935;28;20078;-71
2023/02/04 09:20:44;;;;;;;2.28;2.08;;;;;;;1.65;76.44;102907.81;5085735;28;20031;-71
2023/02/04 09:23:11;;;;;;;0.50;0.50;;;;;;;1.33;76.77;102907.34;5085112;28;20059;-70
2023/02/04 09:25:41;;;;;;;0.57;0.57;;;;;;;1.15;77.64;102904.38;5085660;28;20016;-70
2023/02/04 09:28:10;;;;;;;0.50;0.50;;;;;;;1.60;78.92;102910.94;5067194;28;20024;-69
2023/02/04 09:30:35;;;;;;;0.45;0.45;;;;;;;2.32;78.39;102925.97;5085733;28;20421;-71
2023/02/04 09:33:01;;;;;;;7.43;4.43;;;;;;;3.15;77.82;102920.97;5085872;28;20025;-73
2023/02/04 09:35:26;;;;;;;0.50;0.50;;;;;;;3.81;76.87;102932.66;5085114;28;20126;-72
2023/02/04 09:37:52;;;;;;;0.50;0.50;;;;;;;4.54;76.23;102928.31;5085656;28;20027;-73
2023/02/04 09:40:19;;;;;;;0.47;0.47;;;;;;;4.88;74.31;102911.31;5085572;28;20034;-70
2023/02/04 09:42:48;;;;;;;2.50;2.35;;;;;;;5.45;73.66;102926.41;5085705;28;20023;-72
2023/02/04 09:45:22;;;;;;;0.40;0.40;;;;;;;6.07;73.01;102919.34;5068058;28;20058;-71
2023/02/04 09:47:49;;;;;;;0.50;0.50;;;;;;;6.13;71.94;102915.31;5086116;28;20055;-70
2023/02/04 09:50:17;;;;;;;0.50;0.50;;;;;;;6.49;71.76;102923.13;5086151;28;20024;-72
2023/02/04 09:52:46;;;;;;;0.40;0.40;;;;;;;6.60;72.11;102920.19;5086050;28;20213;-72
2023/02/04 09:55:14;;;;;;;0.50;0.50;;;;;;;7.04;72.30;102941.22;5086100;28;20043;-72
2023/02/04 09:57:40;;;;;;;0.50;0.50;;;;;;;7.13;69.29;102931.31;5086207;28;20033;-72
2023/02/04 10:00:19;;;;;;;0.50;0.50;;;;;;;6.82;69.00;102929.88;5086256;28;20123;-72
2023/02/04 10:02:45;;;;;;;0.40;0.40;;;;;;;7.42;70.79;102941.22;5085776;28;20110;-71
2023/02/04 10:05:17;;;;;;;0.40;0.40;;;;;;;7.27;65.58;102923.28;5085160;28;20071;-70
2023/02/04 10:07:45;;;;;;;0.50;0.50;;;;;;;7.97;69.12;102922.94;5085109;28;20115;-72
2023/02/04 10:10:24;;;;;;;0.40;0.40;;;;;;;8.22;69.18;102931.72;5085242;28;20108;-71
2023/02/04 10:12:51;;;;;;;0.50;0.50;;;;;;;8.14;70.40;102940.06;5085309;28;20076;-71
2023/02/04 10:15:18;;;;;;;0.40;0.40;;;;;;;8.58;67.34;102934.09;5085097;28;20020;-72
2023/02/04 10:17:49;;;;;;;0.40;0.40;;;;;;;9.09;68.03;102929.19;5085524;28;20024;-72
2023/02/04 10:20:18;;;;;;;0.50;0.50;;;;;;;9.15;67.20;102938.03;5085233;28;20080;-73
2023/02/04 10:22:44;;;;;;;0.40;0.40;;;;;;;8.91;67.43;102925.91;5084930;28;20021;-71
2023/02/04 10:25:15;;;;;;;0.40;0.40;;;;;;;8.97;68.56;102930.47;5084877;28;20512;-71
2023/02/04 10:27:58;;;;;;;0.50;0.50;;;;;;;8.80;67.81;102927.22;5085052;28;20118;-72
2023/02/04 10:30:27;;;;;;;0.40;0.40;;;;;;;8.46;69.96;102915.44;5067386;28;20024;-72
2023/02/04 10:32:53;;;;;;;0.40;0.40;;;;;;;8.66;70.73;102932.72;5051464;28;20028;-72
2023/02/04 10:35:19;;;;;;;0.50;0.50;;;;;;;8.94;70.87;102932.94;5070242;28;20429;-72
2023/02/04 10:37:46;;;;;;;2.50;1.10;;;;;;;8.88;68.50;102933.56;5070897;28;20024;-71
2023/02/04 10:40:44;;;;;;;0.40;0.40;;;;;;;8.32;60.04;102941.66;5088982;28;20025;-70
2023/02/04 10:43:20;;;;;;;0.30;0.30;;;;;;;7.69;66.76;102938.09;5045062;28;20036;-71
2023/02/04 10:45:53;;;;;;;0.45;0.45;;;;;;;6.71;66.40;102946.53;5088836;28;20078;-71
2023/02/04 10:48:19;;;;;;;3.92;3.60;;;;;;;6.05;69.44;102936.44;5089050;28;20028;-71
2023/02/04 10:50:46;;;;;;;0.50;0.50;;;;;;;5.47;72.02;102940.28;5088705;28;20024;-72
2023/02/04 10:56:01;;;;;;;0.47;0.47;;;;;;;4.93;70.21;102959.72;5088980;28;20035;-71
2023/02/04 10:58:28;;;;;;;0.50;0.50;;;;;;;4.94;69.73;102964.06;5088528;28;20024;-71
2023/02/04 11:00:54;;;;;;;0.50;0.50;;;;;;;4.75;70.80;102958.66;5070439;28;20051;-71
2023/02/04 11:03:29;;;;;;;0.50;0.50;;;;;;;4.43;70.77;102956.88;5088599;28;20028;-72
2023/02/04 11:05:56;;;;;;;0.55;0.55;;;;;;;4.62;72.17;102959.66;5070520;28;20035;-72
2023/02/04 11:08:35;;;;;;;0.50;0.50;;;;;;;4.99;72.19;102963.41;5088509;28;20035;-72
2023/02/04 11:11:04;;;;;;;0.50;0.50;;;;;;;5.41;71.02;102970.88;5088500;28;20035;-72
2023/02/04 11:13:43;;;;;;;0.50;0.50;;;;;;;6.00;69.25;102957.59;5088371;28;20096;-73
2023/02/04 11:16:23;;;;;;;0.52;0.52;;;;;;;6.65;67.00;102971.22;5088264;28;20032;-73
2023/02/04 11:19:12;;;;;;;0.50;0.50;;;;;;;6.81;65.25;102974.56;5088487;28;20490;-72
2023/02/04 11:21:46;;;;;;;0.50;0.50;;;;;;;6.64;64.60;102982.38;5088139;28;20025;-72
2023/02/04 11:24:14;;;;;;;0.50;0.50;;;;;;;6.77;65.48;102978.69;5088303;28;20024;-72
2023/02/04 11:26:48;;;;;;;0.70;0.70;;;;;;;7.14;65.02;102982.16;5087980;28;20024;-72